Latest Weather Observations for Horsley Park

IDN60801

Issued at 8:52 pm EDT Thursday 21 February 2019 (issued every 10 minutes, with the page automatically refreshed every 10 minutes)

About weather observations | Map of weather stations | Latest weather observations for NSW | Other Formats
Station Details ID: 067119 Name: HORSLEY PARK EQUESTRIAN CENTRE AWS Lat: -33.85 Lon: 150.86 Height: 100.0 m
Data from the previous 72 hours. | See also: Recent months at Horsley Park
Date/Time
EDT
Temp
°C
App
Temp
°C
Dew
Point
°C
Rel
Hum
%
Delta-T
°C
Wind Press
QNH
hPa
Press
MSL
hPa
Rain since
9am
mm
Dir  Spd
km/h
Gust
km/h
Spd
kts
Gust
kts
21/08:30pm 20.3 20.6 16.1 77 2.5 SSE 9 15 5 8 - - 0.2
21/08:00pm 20.2 20.5 16.0 77 2.5 SSE 9 20 5 11 - - 0.2
21/07:30pm 20.2 20.3 16.4 79 2.3 SSE 11 17 6 9 - - 0.2
21/07:00pm 20.5 20.5 16.3 77 2.5 SSE 11 22 6 12 - - 0.2
21/06:30pm 20.8 20.5 16.4 76 2.7 SSE 13 20 7 11 - - 0.2
21/06:00pm 21.9 22.2 17.1 74 3.0 SE 11 20 6 11 - - 0.2
21/05:30pm 22.6 22.1 16.9 70 3.5 SE 15 24 8 13 - - 0.2
21/05:00pm 23.2 22.6 16.7 67 4.0 SE 15 24 8 13 - - 0.2
21/04:30pm 23.3 23.1 16.8 67 4.0 SE 13 22 7 12 - - 0.2
21/04:00pm 23.3 23.3 17.1 68 3.8 SE 13 20 7 11 - - 0.2
21/03:30pm 22.7 23.0 16.9 70 3.6 ESE 11 17 6 9 - - 0.2
21/03:00pm 24.0 24.4 17.3 66 4.2 SE 11 19 6 10 - - 0.2
21/02:30pm 23.2 23.4 16.7 67 4.0 SE 11 19 6 10 - - 0.2
21/02:00pm 23.8 23.8 17.3 67 4.0 ESE 13 20 7 11 - - 0.2
21/01:30pm 23.0 22.9 17.0 69 3.7 SE 13 19 7 10 - - 0.2
21/01:00pm 22.7 23.1 17.2 71 3.4 SE 11 15 6 8 - - 0.2
21/12:30pm 22.3 23.1 17.2 73 3.1 SE 9 19 5 10 - - 0.2
21/12:00pm 21.6 22.4 17.4 77 2.6 SE 9 15 5 8 - - 0.2
21/11:30am 22.1 23.5 17.7 76 2.7 SE 7 11 4 6 - - 0.2
21/11:00am 21.7 22.3 17.7 78 2.5 SE 11 20 6 11 - - 0.2
21/10:30am 21.2 23.0 18.4 84 1.8 SSE 6 13 3 7 - - 0.2
21/10:00am 20.5 22.1 17.9 85 1.6 S 6 13 3 7 - - 0.2
21/09:30am 20.6 22.3 18.0 85 1.6 S 6 9 3 5 - - 0.0
21/09:00am 20.2 21.7 18.0 87 1.4 S 7 11 4 6 - - 0.6
21/08:30am 19.8 21.4 17.8 88 1.2 S 6 7 3 4 - - 0.6
21/08:00am 19.8 21.0 17.4 86 1.5 S 7 9 4 5 - - 0.6
21/07:30am 20.1 21.2 17.1 83 1.8 S 7 11 4 6 - - 0.6
21/07:00am 19.9 21.1 17.3 85 1.6 S 7 13 4 7 - - 0.6
21/06:30am 19.6 20.7 17.2 86 1.5 S 7 11 4 6 - - 0.6
21/06:00am 19.6 20.9 17.6 88 1.2 SSW 7 11 4 6 - - 0.6
21/05:30am 19.5 20.4 17.5 88 1.2 S 9 11 5 6 - - 0.6
21/05:00am 19.5 20.8 17.6 89 1.2 S 7 13 4 7 - - 0.6
21/04:30am 19.7 21.0 17.5 87 1.4 S 7 13 4 7 - - 0.6
21/04:00am 20.1 21.1 17.7 86 1.5 SSE 9 17 5 9 - - 0.6
21/03:30am 20.4 21.0 17.6 84 1.7 S 11 17 6 9 - - 0.6
21/03:00am 20.5 21.5 17.7 84 1.7 S 9 15 5 8 - - 0.6
21/02:30am 20.5 21.9 17.7 84 1.7 SSE 7 13 4 7 - - 0.6
21/02:00am 20.6 21.2 17.8 84 1.7 S 11 17 6 9 - - 0.6
21/01:30am 20.6 21.6 17.8 84 1.7 S 9 15 5 8 - - 0.6
21/01:00am 20.6 21.7 18.0 85 1.6 S 9 15 5 8 - - 0.6
21/12:30am 20.7 22.0 18.5 87 1.4 SSE 9 13 5 7 - - 0.6
21/12:00am 20.7 22.0 18.5 87 1.4 SSE 9 15 5 8 - - 0.6
 
Date/Time
EDT
Temp
°C
App
Temp
°C
Dew
Point
°C
Rel
Hum
%
Delta-T
°C
Wind Press
QNH
hPa
Press
MSL
hPa
Rain since
9am
mm
Dir  Spd
km/h
Gust
km/h
Spd
kts
Gust
kts
20/11:30pm 20.6 21.5 18.4 87 1.4 SSE 11 15 6 8 - - 0.6
20/11:00pm 20.4 22.1 18.5 89 1.2 SSE 7 11 4 6 - - 0.6
20/10:30pm 20.7 21.9 18.3 86 1.5 S 9 15 5 8 - - 0.4
20/10:00pm 20.9 22.5 18.3 85 1.6 S 7 15 4 8 - - 0.4
20/09:30pm 20.8 22.0 18.2 85 1.6 S 9 15 5 8 - - 0.4
20/09:00pm 20.7 21.8 18.1 85 1.6 SSE 9 17 5 9 - - 0.4
20/08:30pm 20.7 21.8 17.9 84 1.7 SSE 9 15 5 8 - - 0.4
20/08:00pm 20.8 21.5 18.0 84 1.7 SSE 11 20 6 11 - - 0.4
20/07:30pm 20.9 21.7 18.1 84 1.7 SE 11 19 6 10 - - 0.4
20/07:00pm 21.0 22.2 18.2 84 1.7 SE 9 15 5 8 - - 0.4
20/06:30pm 21.5 22.2 17.9 80 2.2 SSE 11 19 6 10 - - 0.4
20/06:00pm 21.8 22.1 17.8 78 2.5 SSE 13 19 7 10 - - 0.4
20/05:30pm 22.2 23.1 17.6 75 2.9 SSE 9 13 5 7 - - 0.4
20/05:00pm 22.6 23.7 17.9 75 2.9 SE 9 15 5 8 - - 0.4
20/04:30pm 23.0 23.3 17.9 73 3.2 SSE 13 20 7 11 - - 0.4
20/04:00pm 23.5 24.4 18.4 73 3.2 ESE 11 19 6 10 - - 0.4
20/03:30pm 23.8 24.7 18.4 72 3.4 ESE 11 19 6 10 - - 0.4
20/03:00pm 23.4 24.7 18.5 74 3.1 SE 9 17 5 9 - - 0.4
20/02:30pm 22.4 23.8 18.6 79 2.4 SSW 9 17 5 9 - - 0.4
20/02:00pm 21.4 23.1 18.6 84 1.8 S 7 11 4 6 - - 0.4
20/01:30pm 21.2 22.9 18.4 84 1.8 SSW 7 11 4 6 - - 0.4
20/01:00pm 21.3 22.5 18.3 83 1.9 SW 9 13 5 7 - - 0.4
20/12:30pm 21.2 22.8 19.1 88 1.3 S 9 15 5 8 - - 0.4
20/12:00pm 20.7 22.2 18.8 89 1.2 SW 9 13 5 7 - - 0.4
20/11:30am 19.8 21.4 18.3 91 0.9 SSW 7 9 4 5 - - 0.4
20/11:00am 19.2 20.2 17.7 91 0.9 SSW 9 17 5 9 - - 0.4
20/10:30am 18.8 20.2 17.8 94 0.6 SSW 7 13 4 7 - - 0.4
20/10:00am 18.5 19.8 17.5 94 0.6 SW 7 11 4 6 - - 0.4
20/09:30am 18.2 19.6 17.4 95 0.5 SW 6 11 3 6 - - 0.4
20/09:00am 18.0 19.1 17.0 94 0.6 WSW 7 11 4 6 - - 2.6
20/08:30am 17.9 19.1 16.9 94 0.6 SW 6 11 3 6 - - 2.6
20/08:00am 17.9 19.5 16.9 94 0.6 WSW 4 7 2 4 - - 2.4
20/07:30am 17.9 19.2 17.1 95 0.5 SW 6 9 3 5 - - 2.4
20/07:00am 17.8 18.8 16.8 94 0.6 SW 7 15 4 8 - - 2.4
20/06:30am 17.9 18.4 16.6 92 0.8 SSW 9 11 5 6 - - 2.2
20/06:00am 18.0 19.1 16.5 91 0.9 SSW 6 9 3 5 - - 2.2
20/05:30am 18.4 19.5 16.6 89 1.1 SSW 6 9 3 5 - - 2.2
20/05:00am 18.7 19.7 16.3 86 1.4 SW 6 9 3 5 - - 2.2
20/04:30am 18.6 19.5 16.6 88 1.2 SW 7 11 4 6 - - 2.2
20/04:00am 18.5 19.4 16.7 89 1.1 SW 7 11 4 6 - - 2.2
20/03:30am 18.3 19.4 17.0 92 0.8 SW 7 11 4 6 - - 2.2
20/03:00am 18.3 19.7 17.3 94 0.6 SW 6 9 3 5 - - 2.2
20/02:30am 18.2 19.9 17.2 94 0.6 SW 4 7 2 4 - - 2.2
20/02:00am 18.2 19.5 17.2 94 0.6 SW 6 7 3 4 - - 2.2
20/01:30am 18.2 19.5 17.2 94 0.6 SW 6 9 3 5 - - 1.8
20/01:00am 18.2 19.3 17.2 94 0.6 SW 7 11 4 6 - - 1.8
20/12:30am 18.4 19.8 17.4 94 0.6 SW 6 9 3 5 - - 1.6
20/12:00am 18.4 19.7 17.2 93 0.7 SW 6 9 3 5 - - 1.0
 
Date/Time
EDT
Temp
°C
App
Temp
°C
Dew
Point
°C
Rel
Hum
%
Delta-T
°C
Wind Press
QNH
hPa
Press
MSL
hPa
Rain since
9am
mm
Dir  Spd
km/h
Gust
km/h
Spd
kts
Gust
kts
19/11:30pm 18.6 20.0 17.4 93 0.7 SW 6 9 3 5 - - 0.8
19/11:00pm 18.5 19.6 17.2 92 0.8 SSW 7 11 4 6 - - 0.6
19/10:30pm 18.5 19.6 17.0 91 0.9 SSW 7 11 4 6 - - 0.2
19/10:00pm 18.8 19.4 16.8 88 1.2 S 9 15 5 8 - - 0.0
19/09:30pm 20.1 19.7 16.1 78 2.4 SSW 13 19 7 10 - - 0.0
19/09:00pm 20.5 20.1 16.3 77 2.5 SSW 13 20 7 11 - - 0.0
19/08:30pm 21.2 20.4 16.2 73 3.0 S 15 24 8 13 - - 0.0
19/08:00pm 21.5 20.7 16.2 72 3.2 S 15 24 8 13 - - 0.0
19/07:30pm 21.9 22.0 16.4 71 3.3 S 11 19 6 10 - - 0.0
19/07:00pm 22.2 21.4 16.2 69 3.6 S 15 22 8 12 - - 0.0
19/06:30pm 22.7 22.3 16.3 67 3.9 SSE 13 24 7 13 - - 0.0
19/06:00pm 23.2 22.2 16.5 66 4.1 SE 17 28 9 15 - - 0.0
19/05:30pm 24.1 23.3 16.1 61 4.9 SE 15 28 8 15 - - 0.0
19/05:00pm 24.1 22.1 16.4 62 4.7 SE 22 35 12 19 - - 0.0
19/04:30pm 23.3 22.5 16.1 64 4.4 SSE 15 28 8 15 - - 0.0
19/04:00pm 24.3 22.1 16.0 60 5.1 SE 22 33 12 18 - - 0.0
19/03:30pm 24.2 21.6 15.9 59 5.1 SE 24 39 13 21 - - 0.0
19/03:24pm 25.0 22.0 16.7 60 5.1 SE 28 46 15 25 - - 0.0
19/03:00pm 23.8 20.0 15.8 61 4.9 SE 30 44 16 24 - - 0.0
19/02:30pm 24.4 20.3 15.9 59 5.2 SE 32 43 17 23 - - 0.0
19/02:00pm 27.7 25.4 16.6 50 6.9 SE 24 33 13 18 - - 0.0
19/01:30pm 29.3 27.2 17.2 48 7.7 SE 24 35 13 19 - - 0.0
19/01:00pm 29.7 28.2 16.8 45 8.1 ESE 20 32 11 17 - - 0.0
19/12:30pm 30.1 29.1 17.9 48 7.8 ESE 20 32 11 17 - - 0.0
19/12:00pm 32.1 32.4 16.0 38 10.1 ESE 9 19 5 10 - - 0.0
19/11:30am 31.0 31.2 15.8 40 9.5 SE 9 19 5 10 - - 0.0
19/11:00am 29.5 30.2 17.0 47 7.9 SSE 9 19 5 10 - - 0.0
19/10:30am 29.4 31.1 17.2 47 7.7 SSE 4 15 2 8 - - 0.0
19/10:00am 28.5 30.3 16.4 48 7.5 N 2 6 1 3 - - 0.0
19/09:30am 28.0 29.7 16.3 49 7.3 SW 2 7 1 4 - - 0.0
19/09:00am 26.5 28.8 16.7 55 6.1 CALM 0 4 0 2 - - 0.0
19/08:30am 24.9 27.7 17.9 65 4.4 CALM 0 0 0 0 - - 0.0
19/08:00am 23.6 27.1 19.5 78 2.6 CALM 0 0 0 0 - - 0.0
19/07:30am 21.5 24.6 18.7 84 1.8 CALM 0 0 0 0 - - 0.0
19/07:00am 21.5 24.5 18.5 83 1.9 CALM 0 0 0 0 - - 0.0
19/06:30am 21.4 24.2 18.0 81 2.1 CALM 0 4 0 2 - - 0.0
19/06:00am 21.9 24.5 18.3 80 2.3 SE 2 6 1 3 - - 0.0
19/05:30am 22.4 24.7 17.8 75 2.9 SW 2 4 1 2 - - 0.0
19/05:00am 22.7 24.1 17.4 72 3.3 ESE 6 9 3 5 - - 0.0
19/04:30am 23.4 24.5 16.7 66 4.1 E 6 7 3 4 - - 0.0
19/04:00am 23.3 23.6 17.1 68 3.8 E 11 15 6 8 - - 0.0
19/03:30am 23.7 22.7 16.7 65 4.3 E 17 24 9 13 - - 0.0
19/03:00am 23.8 24.3 15.0 57 5.3 SSE 6 9 3 5 - - 0.0
19/02:30am 24.4 25.4 14.2 53 6.0 S 2 6 1 3 - - 0.0
19/02:00am 25.0 25.0 14.2 51 6.4 SSW 7 11 4 6 - - 0.0
19/01:30am 24.9 24.9 13.5 49 6.7 S 6 7 3 4 - - 0.0
19/01:00am 25.7 24.6 13.2 46 7.3 SE 11 17 6 9 - - 0.0
19/12:30am 26.6 25.6 13.3 43 7.8 SSW 11 17 6 9 - - 0.0
19/12:00am 25.3 25.1 13.5 48 6.9 SSE 7 13 4 7 - - 0.0
 
Date/Time
EDT
Temp
°C
App
Temp
°C
Dew
Point
°C
Rel
Hum
%
Delta-T
°C
Wind Press
QNH
hPa
Press
MSL
hPa
Rain since
9am
mm
Dir  Spd
km/h
Gust
km/h
Spd
kts
Gust
kts
18/11:30pm 25.3 24.3 13.5 48 6.9 SE 11 17 6 9 - - 0.0
18/11:00pm 25.5 23.1 13.7 48 7.0 SSW 19 28 10 15 - - 0.0
18/10:30pm 26.0 26.5 12.8 44 7.7 NNE 2 6 1 3 - - 0.0
18/10:00pm 25.8 26.7 14.0 48 7.0 N 2 7 1 4 - - 0.0
18/09:30pm 24.9 26.1 13.8 50 6.6 CALM 0 0 0 0 - - 0.0
18/09:00pm 25.4 26.6 13.9 49 6.8 CALM 0 0 0 0 - - 0.0

Other formats

Comma delimited format used in spreadsheet applications
http://www.bom.gov.au/fwo/IDN60801/IDN60801.94760.axf

JavaScript Object Notation format (JSON) in row-major order
http://www.bom.gov.au/fwo/IDN60801/IDN60801.94760.json

Data quality

Most of these data are generated automatically and are frequently updated. Quality checks on data are not normally performed. It is possible for incorrect values to appear. Refer to information at About Latest Weather Observations and please check the disclaimer before using these data.